Time;durP1;ratioP1;P1;durP2;ratioP2;P2;SDS_P1;SDS_P2;PMS_P1;PMS_P2;Temp;Humidity;BMP_temperature;BMP_pressure;BME280_temperature;BME280_humidity;BME280_pressure;Samples;Min_cycle;Max_cycle;Signal;HPM_P1;HPM_P2
2023/04/07 00:00:26;;;;;;;23.17;11.35;;;7.30;99.90;;;;;;5083269;28;20095;-73
2023/04/07 00:02:52;;;;;;;28.73;11.43;;;7.30;99.90;;;;;;5071770;28;20489;-72
2023/04/07 00:05:18;;;;;;;23.48;10.38;;;7.30;99.90;;;;;;5088573;28;20052;-73
2023/04/07 00:07:44;;;;;;;25.63;11.20;;;7.30;99.90;;;;;;5092095;28;20044;-72
2023/04/07 00:10:09;;;;;;;23.45;11.15;;;7.30;99.90;;;;;;5092269;28;20036;-72
2023/04/07 00:12:35;;;;;;;22.38;11.18;;;7.30;99.90;;;;;;5091344;28;20050;-73
2023/04/07 00:15:01;;;;;;;24.30;10.95;;;7.30;99.90;;;;;;5089838;28;20036;-73
2023/04/07 00:17:27;;;;;;;24.92;11.50;;;7.30;99.90;;;;;;5070507;28;20106;-73
2023/04/07 00:19:52;;;;;;;23.15;11.85;;;7.30;99.90;;;;;;5072780;28;20040;-73
2023/04/07 00:22:18;;;;;;;25.15;11.75;;;7.40;99.90;;;;;;5088394;28;20048;-73
2023/04/07 00:24:44;;;;;;;23.58;10.77;;;7.30;99.90;;;;;;5092617;28;20374;-73
2023/04/07 00:27:09;;;;;;;23.40;10.75;;;7.40;99.90;;;;;;5074649;28;20131;-73
2023/04/07 00:29:35;;;;;;;26.52;11.40;;;7.30;99.90;;;;;;5071304;28;20060;-73
2023/04/07 00:32:01;;;;;;;26.73;12.73;;;7.30;99.90;;;;;;5071786;28;20485;-72
2023/04/07 00:34:27;;;;;;;24.05;10.63;;;7.30;99.90;;;;;;5078589;28;20065;-73
2023/04/07 00:36:52;;;;;;;27.20;10.93;;;7.30;99.90;;;;;;5091105;28;20079;-73
2023/04/07 00:39:19;;;;;;;28.17;12.25;;;7.30;99.90;;;;;;5072100;28;20474;-73
2023/04/07 00:41:45;;;;;;;29.88;12.18;;;7.20;99.90;;;;;;5070918;28;20058;-73
2023/04/07 00:44:11;;;;;;;;;;;7.20;99.90;;;;;;5070635;28;20048;-70
2023/04/07 00:46:37;;;;;;;26.05;11.98;;;7.20;99.90;;;;;;5082070;28;19928;-73
2023/04/07 00:49:03;;;;;;;25.85;12.32;;;7.30;99.90;;;;;;5091538;28;20048;-74
2023/04/07 00:51:30;;;;;;;28.08;12.35;;;7.20;99.90;;;;;;5089071;28;20048;-73
2023/04/07 00:53:56;;;;;;;29.08;12.23;;;7.20;99.90;;;;;;5090984;28;20047;-73
2023/04/07 00:56:21;;;;;;;29.25;13.27;;;7.20;99.90;;;;;;5089282;28;20040;-73
2023/04/07 00:58:47;;;;;;;30.05;13.20;;;7.20;99.90;;;;;;5091214;28;20067;-73
2023/04/07 01:01:21;;;;;;;28.88;13.07;;;7.20;99.90;;;;;;5073381;28;20095;-72
2023/04/07 01:03:59;;;;;;;29.13;12.05;;;7.20;99.90;;;;;;5077014;28;20130;-73
2023/04/07 01:06:30;;;;;;;26.73;13.00;;;7.20;99.90;;;;;;5106023;28;20076;-73
2023/04/07 01:09:29;;;;;;;29.58;13.48;;;7.20;99.90;;;;;;5091852;28;20051;-73
2023/04/07 01:12:08;;;;;;;28.38;11.73;;;7.20;99.90;;;;;;5066773;28;20056;-73
2023/04/07 01:14:41;;;;;;;32.22;13.70;;;7.20;99.90;;;;;;5071157;28;20048;-72
2023/04/07 01:17:10;;;;;;;27.30;12.40;;;7.30;99.90;;;;;;5071280;28;20083;-74
2023/04/07 01:19:39;;;;;;;31.42;13.85;;;7.10;99.90;;;;;;5070706;28;20374;-73
2023/04/07 01:22:11;;;;;;;30.25;13.40;;;7.20;99.90;;;;;;5076734;28;20048;-73
2023/04/07 01:25:14;;;;;;;32.40;14.15;;;7.20;99.90;;;;;;5090580;28;20058;-73
2023/04/07 01:28:08;;;;;;;30.77;13.25;;;7.20;99.90;;;;;;5091221;28;20143;-72
2023/04/07 01:30:40;;;;;;;26.48;12.20;;;7.20;99.90;;;;;;5090778;28;20043;-73
2023/04/07 01:33:08;;;;;;;30.60;12.57;;;7.20;99.90;;;;;;5089801;28;20062;-74
2023/04/07 01:35:35;;;;;;;31.45;14.20;;;7.20;99.90;;;;;;5070065;28;20044;-73
2023/04/07 01:38:02;;;;;;;31.13;13.80;;;7.20;99.90;;;;;;5070816;28;20044;-73
2023/04/07 01:40:29;;;;;;;28.63;13.27;;;7.30;99.90;;;;;;5071729;28;20052;-73
2023/04/07 01:42:56;;;;;;;;;;;7.30;99.90;;;;;;5071282;28;20040;-72
2023/04/07 01:45:22;;;;;;;30.48;13.02;;;7.20;99.90;;;;;;5052560;28;19967;-73
2023/04/07 01:47:49;;;;;;;31.83;13.57;;;7.20;99.90;;;;;;5083997;28;20047;-72
2023/04/07 01:50:15;;;;;;;30.58;13.10;;;7.20;99.90;;;;;;5090092;28;20046;-73
2023/04/07 01:52:42;;;;;;;25.73;13.18;;;7.20;99.90;;;;;;5089390;28;20048;-73
2023/04/07 01:55:09;;;;;;;;;;;7.20;99.90;;;;;;5091420;28;20044;-73
2023/04/07 01:57:34;;;;;;;28.52;13.25;;;7.20;99.90;;;;;;5078293;28;19971;-72
2023/04/07 02:00:01;;;;;;;27.25;12.63;;;7.20;99.90;;;;;;5071434;28;20103;-73
2023/04/07 02:02:27;;;;;;;29.45;13.18;;;7.30;99.90;;;;;;5076689;28;20727;-73
2023/04/07 02:05:02;;;;;;;32.15;13.40;;;7.20;99.90;;;;;;5090152;28;20051;-72
2023/04/07 02:07:40;;;;;;;30.42;13.02;;;7.20;99.90;;;;;;5078855;28;20056;-73
2023/04/07 02:10:10;;;;;;;27.58;13.10;;;7.30;99.90;;;;;;5087426;28;20119;-73
2023/04/07 02:12:38;;;;;;;31.13;13.30;;;7.30;99.90;;;;;;5089396;28;20125;-72
2023/04/07 02:15:07;;;;;;;29.50;14.57;;;7.20;99.90;;;;;;5089238;28;20048;-72
2023/04/07 02:17:36;;;;;;;26.40;12.95;;;7.30;99.90;;;;;;5088135;28;20525;-72
2023/04/07 02:20:04;;;;;;;31.40;12.18;;;7.30;99.90;;;;;;5089927;28;20048;-73
2023/04/07 02:22:30;;;;;;;30.15;13.55;;;7.20;99.90;;;;;;5087287;28;20051;-72
2023/04/07 02:24:56;;;;;;;29.73;12.38;;;7.20;99.90;;;;;;5090849;28;20388;-72
2023/04/07 02:27:22;;;;;;;26.73;13.02;;;7.30;99.90;;;;;;5082363;28;20047;-72
2023/04/07 02:29:47;;;;;;;28.83;12.95;;;7.30;99.90;;;;;;5070485;28;20045;-72
2023/04/07 02:32:13;;;;;;;26.65;12.27;;;7.30;99.90;;;;;;5069018;28;20044;-74
2023/04/07 02:34:39;;;;;;;27.80;12.00;;;7.30;99.90;;;;;;5086177;28;20109;-72
2023/04/07 02:37:05;;;;;;;29.90;12.93;;;7.30;99.90;;;;;;5070022;28;20486;-72
2023/04/07 02:39:30;;;;;;;29.42;12.70;;;7.30;99.90;;;;;;5085863;28;20197;-72
2023/04/07 02:41:56;;;;;;;25.92;12.00;;;7.30;99.90;;;;;;5083438;28;20101;-72
2023/04/07 02:44:21;;;;;;;24.90;12.13;;;7.30;99.90;;;;;;5090810;28;20066;-72
2023/04/07 02:46:47;;;;;;;26.17;12.02;;;7.30;99.90;;;;;;5073590;28;20064;-72
2023/04/07 02:49:13;;;;;;;25.70;11.57;;;7.30;99.90;;;;;;5089195;28;20059;-73
2023/04/07 02:51:38;;;;;;;27.73;13.45;;;7.30;99.90;;;;;;5092527;28;20163;-72
2023/04/07 02:54:04;;;;;;;27.65;11.15;;;7.20;99.90;;;;;;5110385;28;20258;-72
2023/04/07 02:56:30;;;;;;;22.67;11.60;;;7.20;99.90;;;;;;5093737;28;20040;-72
2023/04/07 02:58:55;;;;;;;26.15;11.80;;;7.30;99.90;;;;;;5093835;28;20052;-72
2023/04/07 03:01:21;;;;;;;25.50;11.40;;;7.20;99.90;;;;;;5091815;28;20105;-72
2023/04/07 03:03:47;;;;;;;26.38;12.15;;;7.30;99.90;;;;;;5081475;28;20051;-72
2023/04/07 03:06:13;;;;;;;27.02;12.35;;;7.20;99.90;;;;;;5092641;28;20109;-72
2023/04/07 03:08:38;;;;;;;26.30;12.40;;;7.20;99.90;;;;;;5073103;28;20056;-72
2023/04/07 03:11:04;;;;;;;28.67;12.35;;;7.30;99.90;;;;;;5089467;28;20055;-72
2023/04/07 03:13:31;;;;;;;24.73;11.98;;;7.30;99.90;;;;;;5093261;28;20047;-72
2023/04/07 03:15:57;;;;;;;27.10;11.50;;;7.30;99.90;;;;;;5093216;28;20492;-72
2023/04/07 03:18:22;;;;;;;25.40;11.23;;;7.20;99.90;;;;;;5090995;28;20140;-72
2023/04/07 03:20:48;;;;;;;24.85;12.10;;;7.20;99.90;;;;;;5091608;28;20087;-72
2023/04/07 03:23:14;;;;;;;25.15;12.20;;;7.20;99.90;;;;;;5093800;28;20044;-73
2023/04/07 03:25:40;;;;;;;24.77;11.63;;;7.20;99.90;;;;;;5092473;28;20056;-72
2023/04/07 03:28:06;;;;;;;25.42;12.23;;;7.20;99.90;;;;;;5092079;28;20052;-72
2023/04/07 03:30:32;;;;;;;24.73;12.10;;;7.20;99.90;;;;;;5088243;28;20368;-72
2023/04/07 03:32:57;;;;;;;28.98;12.25;;;7.30;99.90;;;;;;5072268;28;20052;-72
2023/04/07 03:35:23;;;;;;;24.55;12.48;;;7.20;99.90;;;;;;5086944;28;20442;-72
2023/04/07 03:37:49;;;;;;;27.23;12.02;;;7.30;99.90;;;;;;5092825;28;20040;-72
2023/04/07 03:40:14;;;;;;;28.27;12.43;;;7.20;99.90;;;;;;5093626;28;20123;-72
2023/04/07 03:42:40;;;;;;;26.27;11.88;;;7.20;99.90;;;;;;5091182;28;20044;-72
2023/04/07 03:45:06;;;;;;;25.25;11.75;;;7.30;99.90;;;;;;5093320;28;20066;-72
2023/04/07 03:47:32;;;;;;;;;;;7.30;99.90;;;;;;5092049;28;20056;-72
2023/04/07 03:49:57;;;;;;;24.67;11.25;;;7.30;99.90;;;;;;5089595;28;19920;-72
2023/04/07 03:52:23;;;;;;;23.42;11.30;;;7.30;99.90;;;;;;5091175;28;20052;-72
2023/04/07 03:54:49;;;;;;;24.20;11.27;;;7.20;99.90;;;;;;5076641;28;20091;-72
2023/04/07 03:57:15;;;;;;;24.25;11.90;;;7.20;99.90;;;;;;5073755;28;20075;-72
2023/04/07 03:59:41;;;;;;;24.95;12.32;;;7.20;99.90;;;;;;5091055;28;20056;-73
2023/04/07 04:02:06;;;;;;;26.73;11.68;;;7.10;99.90;;;;;;5108162;28;20097;-72
2023/04/07 04:04:32;;;;;;;27.35;12.50;;;7.20;99.90;;;;;;5073912;28;20050;-72
2023/04/07 04:06:58;;;;;;;26.95;11.68;;;7.20;99.90;;;;;;5074878;28;20059;-72
2023/04/07 04:09:23;;;;;;;28.20;12.43;;;7.20;99.90;;;;;;5072082;28;20040;-72
2023/04/07 04:11:49;;;;;;;24.02;11.35;;;7.20;99.90;;;;;;5088397;28;20053;-72
2023/04/07 04:14:15;;;;;;;;;;;7.20;99.90;;;;;;5072900;28;20055;-72
2023/04/07 04:16:42;;;;;;;23.52;11.35;;;7.20;99.90;;;;;;5069818;28;20776;-72
2023/04/07 04:19:07;;;;;;;24.42;11.65;;;7.20;99.90;;;;;;5070609;28;20044;-72
2023/04/07 04:21:33;;;;;;;25.83;12.00;;;7.30;99.90;;;;;;5078459;28;20481;-72
2023/04/07 04:23:59;;;;;;;22.52;10.63;;;7.20;99.90;;;;;;5092667;28;20044;-72
2023/04/07 04:26:25;;;;;;;25.10;11.32;;;7.20;99.90;;;;;;5098584;28;20138;-72
2023/04/07 04:28:51;;;;;;;24.60;12.35;;;7.20;99.90;;;;;;5091205;28;20055;-72
2023/04/07 04:31:17;;;;;;;26.88;11.10;;;7.20;99.90;;;;;;5092241;28;20581;-72
2023/04/07 04:33:43;;;;;;;24.75;11.90;;;7.20;99.90;;;;;;5090993;28;20079;-72
2023/04/07 04:36:09;;;;;;;25.73;11.90;;;7.30;99.90;;;;;;5089950;28;20051;-72
2023/04/07 04:38:34;;;;;;;25.40;12.07;;;7.20;99.90;;;;;;5089203;28;20062;-72
2023/04/07 04:41:00;;;;;;;26.85;12.07;;;7.20;99.90;;;;;;5091051;28;20044;-72
2023/04/07 04:43:26;;;;;;;26.30;10.95;;;7.20;99.90;;;;;;5089091;28;20105;-72
2023/04/07 04:45:51;;;;;;;26.25;11.80;;;7.20;99.90;;;;;;5091817;28;20056;-72
2023/04/07 04:48:17;;;;;;;23.67;11.05;;;7.20;99.90;;;;;;5091097;28;20137;-72
2023/04/07 04:50:43;;;;;;;24.17;11.10;;;7.20;99.90;;;;;;5090334;28;20123;-72
2023/04/07 04:53:09;;;;;;;27.40;11.07;;;7.20;99.90;;;;;;5092045;28;20130;-72
2023/04/07 04:55:35;;;;;;;23.15;10.85;;;7.20;99.90;;;;;;5091445;28;20048;-72
2023/04/07 04:58:01;;;;;;;22.20;10.55;;;7.10;99.90;;;;;;5090561;28;20048;-72
2023/04/07 05:00:26;;;;;;;25.40;11.52;;;7.20;99.90;;;;;;5086854;28;20075;-73
2023/04/07 05:02:53;;;;;;;26.85;10.98;;;7.20;99.90;;;;;;5090604;28;20040;-72
2023/04/07 05:05:19;;;;;;;20.42;9.93;;;7.20;99.90;;;;;;5090208;28;20459;-72
2023/04/07 05:07:45;;;;;;;24.38;10.30;;;7.20;99.90;;;;;;5087171;28;20078;-72
2023/04/07 05:10:11;;;;;;;24.75;11.63;;;7.20;99.90;;;;;;5077459;28;20142;-72
2023/04/07 05:12:37;;;;;;;;;;;7.20;99.90;;;;;;5091128;28;20039;-72
2023/04/07 05:15:02;;;;;;;20.00;9.77;;;7.20;99.90;;;;;;5089879;28;19931;-72
2023/04/07 05:17:28;;;;;;;26.67;9.95;;;7.20;99.90;;;;;;5089602;28;20035;-72
2023/04/07 05:19:54;;;;;;;23.85;10.10;;;7.20;99.90;;;;;;5073039;28;20051;-72
2023/04/07 05:22:20;;;;;;;21.10;9.90;;;7.20;99.90;;;;;;5086288;28;20090;-72
2023/04/07 05:24:46;;;;;;;19.98;9.77;;;7.20;99.90;;;;;;5072946;28;20055;-72
2023/04/07 05:27:11;;;;;;;18.95;9.65;;;7.20;99.90;;;;;;5084117;28;20094;-72
2023/04/07 05:29:37;;;;;;;20.65;9.85;;;7.20;99.90;;;;;;5073917;28;20064;-72
2023/04/07 05:32:04;;;;;;;19.83;9.73;;;7.20;99.90;;;;;;5090805;28;20044;-72
2023/04/07 05:34:30;;;;;;;22.23;9.73;;;7.20;99.90;;;;;;5089314;28;20393;-72
2023/04/07 05:36:56;;;;;;;24.60;10.55;;;7.20;99.90;;;;;;5072410;28;20052;-72
2023/04/07 05:39:22;;;;;;;21.40;10.00;;;7.20;99.90;;;;;;5090117;28;20050;-72
2023/04/07 05:41:47;;;;;;;20.25;9.52;;;7.20;99.90;;;;;;5090628;28;20046;-72
2023/04/07 05:44:13;;;;;;;23.00;10.30;;;7.20;99.90;;;;;;5085732;28;20122;-72
2023/04/07 05:46:39;;;;;;;21.17;10.20;;;7.20;99.90;;;;;;5086104;28;20036;-72
2023/04/07 05:49:04;;;;;;;21.80;10.00;;;7.30;99.90;;;;;;5090503;28;20040;-72
2023/04/07 05:51:30;;;;;;;21.77;10.10;;;7.20;99.90;;;;;;5089858;28;20048;-73
2023/04/07 05:53:57;;;;;;;20.52;10.85;;;7.30;99.90;;;;;;5091044;28;20504;-73
2023/04/07 05:56:23;;;;;;;23.17;11.15;;;7.30;99.90;;;;;;5071718;28;20053;-72
2023/04/07 05:58:49;;;;;;;19.42;9.57;;;7.30;99.90;;;;;;5069781;28;20207;-72
2023/04/07 06:01:14;;;;;;;18.70;9.38;;;7.30;99.90;;;;;;5070568;28;20048;-72
2023/04/07 06:03:40;;;;;;;19.38;9.32;;;7.30;99.90;;;;;;5051713;28;20171;-72
2023/04/07 06:06:06;;;;;;;21.80;10.23;;;7.30;99.90;;;;;;5069727;28;20044;-72
2023/04/07 06:08:31;;;;;;;24.00;10.60;;;7.30;99.90;;;;;;5078247;28;20604;-73
2023/04/07 06:10:57;;;;;;;20.65;9.93;;;7.30;99.90;;;;;;5090853;28;20562;-72
2023/04/07 06:13:23;;;;;;;22.98;9.90;;;7.30;99.90;;;;;;5090641;28;20345;-72
2023/04/07 06:15:48;;;;;;;23.20;10.63;;;7.50;99.90;;;;;;5089678;28;20231;-72
2023/04/07 06:18:14;;;;;;;23.70;10.75;;;7.40;99.90;;;;;;5093735;28;20044;-72
2023/04/07 06:20:40;;;;;;;22.35;10.23;;;7.40;99.90;;;;;;5091369;28;20044;-72
2023/04/07 06:23:06;;;;;;;22.38;10.25;;;7.40;99.90;;;;;;5095020;28;20048;-72
2023/04/07 06:25:31;;;;;;;21.90;9.57;;;7.40;99.90;;;;;;5092988;28;20075;-71
2023/04/07 06:27:57;;;;;;;19.73;9.18;;;7.50;99.90;;;;;;5093991;28;20492;-73
2023/04/07 06:30:23;;;;;;;20.50;10.13;;;7.50;99.90;;;;;;5094718;28;20358;-73
2023/04/07 06:32:48;;;;;;;23.40;9.90;;;7.60;99.90;;;;;;5093121;28;20054;-75
2023/04/07 06:35:14;;;;;;;21.95;9.90;;;7.60;99.90;;;;;;5094239;28;20051;-74
2023/04/07 06:37:40;;;;;;;19.38;10.02;;;7.70;99.90;;;;;;5092166;28;20079;-75
2023/04/07 06:40:07;;;;;;;22.52;9.82;;;7.70;99.90;;;;;;5089393;28;20087;-75
2023/04/07 06:42:32;;;;;;;18.95;9.50;;;7.70;99.90;;;;;;5083562;28;20052;-74
2023/04/07 06:44:58;;;;;;;21.38;8.90;;;7.60;99.90;;;;;;5074021;28;20052;-74
2023/04/07 06:47:24;;;;;;;18.77;9.55;;;7.60;99.90;;;;;;5071394;28;20048;-74
2023/04/07 06:49:49;;;;;;;23.13;10.00;;;7.60;99.90;;;;;;5080411;28;20119;-74
2023/04/07 06:52:15;;;;;;;20.52;9.90;;;7.60;99.90;;;;;;5089239;28;20123;-74
2023/04/07 06:54:41;;;;;;;19.45;9.52;;;7.60;99.90;;;;;;5083336;28;20040;-73
2023/04/07 06:57:10;;;;;;;19.30;9.00;;;7.60;99.90;;;;;;5090928;28;20052;-74
2023/04/07 06:59:37;;;;;;;22.20;10.18;;;7.60;99.90;;;;;;5072890;28;20485;-73
2023/04/07 07:02:03;;;;;;;20.05;10.02;;;7.60;99.90;;;;;;5072904;28;20088;-74
2023/04/07 07:04:28;;;;;;;18.60;9.23;;;7.70;99.90;;;;;;5073427;28;20072;-74
2023/04/07 07:06:54;;;;;;;22.77;9.98;;;7.70;99.90;;;;;;5072125;28;20207;-74
2023/04/07 07:09:21;;;;;;;24.15;9.70;;;7.70;99.90;;;;;;5073604;28;20565;-73
2023/04/07 07:11:46;;;;;;;;;;;7.70;99.90;;;;;;5077430;28;20049;-74
2023/04/07 07:14:12;;;;;;;20.70;9.30;;;7.80;99.90;;;;;;5092687;28;19942;-74
2023/04/07 07:16:38;;;;;;;20.35;8.60;;;7.80;99.90;;;;;;5092469;28;20044;-73
2023/04/07 07:19:04;;;;;;;18.45;8.80;;;7.80;99.90;;;;;;5093080;28;20047;-74
2023/04/07 07:21:30;;;;;;;19.27;9.18;;;7.80;99.90;;;;;;5092336;28;20393;-73
2023/04/07 07:23:56;;;;;;;20.45;9.25;;;7.90;99.90;;;;;;5093305;28;20052;-73
2023/04/07 07:26:22;;;;;;;18.83;9.18;;;7.90;99.90;;;;;;5092217;28;20496;-73
2023/04/07 07:28:47;;;;;;;18.60;9.23;;;8.00;99.90;;;;;;5092758;28;20044;-73
2023/04/07 07:31:14;;;;;;;21.90;10.10;;;8.00;99.90;;;;;;5083894;28;20044;-74
2023/04/07 07:33:42;;;;;;;19.77;8.90;;;8.10;99.90;;;;;;5086544;28;20048;-73
2023/04/07 07:36:08;;;;;;;20.15;10.27;;;8.10;99.90;;;;;;5081746;28;20048;-74
2023/04/07 07:38:35;;;;;;;19.02;9.75;;;8.20;99.90;;;;;;5074359;28;20075;-74
2023/04/07 07:41:01;;;;;;;21.65;9.57;;;8.30;99.90;;;;;;5082634;28;20052;-74
2023/04/07 07:43:26;;;;;;;21.42;10.52;;;8.30;99.90;;;;;;5092996;28;20048;-74
2023/04/07 07:45:52;;;;;;;21.10;10.68;;;8.30;99.90;;;;;;5092234;28;20105;-75
2023/04/07 07:48:18;;;;;;;21.90;10.88;;;8.40;99.90;;;;;;5092121;28;20047;-76
2023/04/07 07:50:44;;;;;;;23.08;10.65;;;8.40;99.90;;;;;;5085481;28;20555;-74
2023/04/07 07:53:10;;;;;;;;;;;8.40;99.90;;;;;;5080526;28;20086;-74
2023/04/07 07:55:35;;;;;;;19.88;9.85;;;8.50;99.90;;;;;;5089765;28;19967;-74
2023/04/07 07:58:01;;;;;;;20.00;10.38;;;8.50;99.90;;;;;;5072232;28;20044;-74
2023/04/07 08:00:27;;;;;;;21.30;11.40;;;8.50;99.90;;;;;;5097523;28;20052;-75
2023/04/07 08:02:53;;;;;;;21.88;11.23;;;8.60;99.90;;;;;;5079917;28;20055;-71
2023/04/07 08:05:19;;;;;;;19.45;10.05;;;8.60;99.90;;;;;;5081162;28;20056;-72
2023/04/07 08:07:45;;;;;;;17.77;9.10;;;8.60;99.90;;;;;;5091498;28;20048;-72
2023/04/07 08:10:12;;;;;;;20.80;10.07;;;8.60;99.90;;;;;;5076371;28;20064;-72
2023/04/07 08:12:38;;;;;;;;;;;8.60;99.90;;;;;;5094105;28;20052;-72
2023/04/07 08:15:06;;;;;;;20.80;10.17;;;8.60;99.90;;;;;;5071256;28;19920;-70
2023/04/07 08:17:32;;;;;;;21.52;10.35;;;8.70;99.90;;;;;;5070566;28;20584;-71
2023/04/07 08:20:00;;;;;;;27.85;11.52;;;8.70;99.90;;;;;;5071200;28;20080;-72
2023/04/07 08:22:25;;;;;;;21.52;10.52;;;8.80;99.90;;;;;;5070029;28;20044;-72
2023/04/07 08:24:51;;;;;;;21.55;10.43;;;8.70;99.90;;;;;;5086723;28;20066;-72
2023/04/07 08:27:17;;;;;;;22.33;10.45;;;8.80;99.90;;;;;;5083964;28;20052;-73
2023/04/07 08:29:42;;;;;;;21.23;11.35;;;8.70;99.90;;;;;;5091477;28;20115;-73
2023/04/07 08:32:08;;;;;;;23.88;12.77;;;8.70;99.90;;;;;;5090517;28;20039;-73
2023/04/07 08:34:34;;;;;;;23.20;11.35;;;8.70;99.90;;;;;;5089283;28;20076;-73
2023/04/07 08:37:00;;;;;;;26.15;12.88;;;8.70;99.90;;;;;;5077723;28;20051;-72
2023/04/07 08:39:26;;;;;;;23.40;11.30;;;8.70;99.90;;;;;;5074365;28;20448;-73
2023/04/07 08:41:55;;;;;;;24.45;12.35;;;8.70;99.90;;;;;;5080434;28;20044;-74
2023/04/07 08:44:22;;;;;;;28.13;13.30;;;8.70;99.90;;;;;;5071475;28;20040;-71
2023/04/07 08:46:50;;;;;;;23.45;11.85;;;8.70;99.90;;;;;;5079120;28;20479;-72
2023/04/07 08:49:17;;;;;;;24.42;12.23;;;8.60;99.90;;;;;;5089527;28;20122;-72
2023/04/07 08:51:47;;;;;;;22.52;11.32;;;8.70;99.90;;;;;;5087687;28;20048;-71
2023/04/07 08:54:17;;;;;;;22.90;11.65;;;8.70;99.90;;;;;;5088990;28;20131;-71
2023/04/07 08:56:44;;;;;;;19.60;9.85;;;8.80;99.90;;;;;;5082577;28;20056;-71
2023/04/07 08:59:12;;;;;;;14.90;7.82;;;8.90;99.90;;;;;;5089756;28;20052;-71
2023/04/07 09:01:38;;;;;;;13.45;6.68;;;8.90;99.90;;;;;;5089080;28;20501;-71
2023/04/07 09:04:06;;;;;;;13.30;6.82;;;9.00;99.90;;;;;;5077832;28;20105;-71
2023/04/07 09:06:33;;;;;;;12.88;6.57;;;9.00;99.90;;;;;;5089113;28;20047;-72
2023/04/07 09:08:59;;;;;;;12.70;6.45;;;9.10;99.90;;;;;;5076202;28;20098;-73
2023/04/07 09:11:29;;;;;;;12.18;6.13;;;9.10;99.90;;;;;;5091049;28;20488;-70
2023/04/07 09:13:55;;;;;;;10.73;5.15;;;9.20;99.90;;;;;;5083045;28;20652;-72
2023/04/07 09:16:22;;;;;;;;;;;9.20;99.90;;;;;;5082038;28;20173;-70
2023/04/07 09:18:48;;;;;;;9.00;4.80;;;9.20;99.90;;;;;;5084690;28;20399;-71
2023/04/07 09:21:14;;;;;;;11.70;4.50;;;9.10;99.90;;;;;;5077737;28;20044;-72
2023/04/07 09:23:41;;;;;;;11.05;5.30;;;9.30;99.90;;;;;;5088550;28;20044;-71
2023/04/07 09:26:27;;;;;;;10.57;4.93;;;9.30;99.90;;;;;;5090239;28;20046;-71
2023/04/07 09:28:54;;;;;;;11.27;4.57;;;9.30;99.90;;;;;;5076317;28;20392;-70
2023/04/07 09:31:42;;;;;;;11.77;4.95;;;9.40;99.90;;;;;;5090881;28;20054;-70
2023/04/07 09:34:25;;;;;;;8.95;4.63;;;9.50;99.90;;;;;;5070818;28;20393;-70
2023/04/07 09:36:51;;;;;;;9.50;4.70;;;9.50;99.90;;;;;;5072194;28;20098;-71
2023/04/07 09:39:17;;;;;;;9.00;4.80;;;9.60;99.90;;;;;;5079033;28;20052;-70
2023/04/07 09:41:42;;;;;;;10.20;4.47;;;9.80;99.90;;;;;;5083722;28;20497;-69
2023/04/07 09:44:09;;;;;;;9.25;5.15;;;9.80;99.90;;;;;;5088174;28;20075;-70
2023/04/07 09:46:35;;;;;;;9.57;5.28;;;9.90;99.90;;;;;;5089972;28;20050;-69
2023/04/07 09:49:05;;;;;;;8.73;4.60;;;10.00;99.90;;;;;;5075831;28;20048;-70
2023/04/07 09:51:32;;;;;;;8.80;4.40;;;10.00;99.90;;;;;;5076634;28;20075;-70
2023/04/07 09:53:58;;;;;;;7.60;3.75;;;10.00;99.90;;;;;;5069348;28;20499;-69
2023/04/07 09:56:27;;;;;;;8.85;4.47;;;10.10;99.90;;;;;;5070079;28;20105;-70
2023/04/07 09:58:54;;;;;;;8.73;4.10;;;10.10;99.90;;;;;;5073250;28;20052;-71
2023/04/07 10:01:21;;;;;;;7.28;3.75;;;10.10;99.90;;;;;;5085375;28;20345;-74
2023/04/07 10:03:49;;;;;;;8.27;4.00;;;10.20;99.90;;;;;;5104446;28;20163;-74
2023/04/07 10:06:15;;;;;;;7.78;3.53;;;10.30;99.90;;;;;;5106992;28;20056;-74
2023/04/07 10:08:42;;;;;;;8.75;4.00;;;10.40;99.90;;;;;;5108613;28;20156;-74
2023/04/07 10:11:09;;;;;;;9.20;3.50;;;10.50;99.90;;;;;;5109980;28;20516;-70
2023/04/07 10:13:36;;;;;;;8.07;3.47;;;10.60;99.90;;;;;;5081143;28;20427;-70
2023/04/07 10:16:04;;;;;;;9.90;3.70;;;10.70;99.90;;;;;;5080117;28;20043;-69
2023/04/07 10:18:32;;;;;;;9.70;3.90;;;10.80;99.90;;;;;;5105314;28;20075;-68
2023/04/07 10:21:03;;;;;;;8.05;3.70;;;11.00;99.90;;;;;;5088288;28;20152;-71
2023/04/07 10:23:57;;;;;;;7.00;3.90;;;11.20;99.90;;;;;;5072402;28;20051;-70
2023/04/07 10:26:27;;;;;;;7.32;3.95;;;11.20;99.90;;;;;;5108360;28;20408;-70
2023/04/07 10:29:00;;;;;;;7.85;3.80;;;11.10;99.90;;;;;;5094449;28;20063;-71
2023/04/07 10:31:26;;;;;;;8.57;4.07;;;10.90;99.90;;;;;;5088979;28;20047;-69
2023/04/07 10:33:53;;;;;;;10.63;4.35;;;10.70;99.90;;;;;;5100644;28;20122;-69
2023/04/07 10:36:20;;;;;;;9.00;3.92;;;10.50;99.90;;;;;;5095045;28;20073;-70
2023/04/07 10:39:05;;;;;;;9.48;4.70;;;10.40;99.90;;;;;;5085069;28;20141;-69
2023/04/07 10:41:39;;;;;;;7.72;4.00;;;10.20;99.90;;;;;;5091686;28;20069;-70
2023/04/07 10:44:28;;;;;;;8.63;4.85;;;10.10;99.90;;;;;;5097098;28;20105;-70
2023/04/07 10:47:00;;;;;;;13.18;4.70;;;10.00;99.90;;;;;;5088995;28;20063;-70
2023/04/07 10:49:26;;;;;;;9.88;5.00;;;10.00;99.90;;;;;;5076293;28;20055;-70
2023/04/07 10:52:10;;;;;;;10.70;4.28;;;10.00;99.90;;;;;;5073312;28;20043;-70
2023/04/07 10:54:37;;;;;;;8.52;4.45;;;10.00;99.90;;;;;;5088183;28;20052;-70
2023/04/07 10:57:02;;;;;;;9.50;4.35;;;10.00;99.90;;;;;;5088437;28;20096;-70
2023/04/07 10:59:29;;;;;;;9.52;4.05;;;10.00;99.90;;;;;;5093092;28;20052;-70
2023/04/07 11:02:13;;;;;;;9.07;4.07;;;9.90;99.90;;;;;;5106278;28;20067;-70
2023/04/07 11:04:44;;;;;;;8.10;4.25;;;9.90;99.90;;;;;;5093985;28;20509;-70
2023/04/07 11:07:12;;;;;;;11.48;4.45;;;9.90;99.90;;;;;;5093813;28;20044;-70
2023/04/07 11:09:38;;;;;;;9.45;4.10;;;9.90;99.90;;;;;;5094098;28;20050;-70
2023/04/07 11:12:05;;;;;;;10.32;4.75;;;9.90;99.90;;;;;;5097576;28;20122;-70
2023/04/07 11:14:31;;;;;;;;;;;9.90;99.90;;;;;;5105858;28;20054;-71
2023/04/07 11:16:58;;;;;;;8.77;4.50;;;9.90;99.90;;;;;;5112664;28;20218;-67
2023/04/07 11:19:23;;;;;;;8.00;4.05;;;9.90;99.90;;;;;;5109662;28;20042;-70
2023/04/07 11:21:49;;;;;;;9.32;3.95;;;9.90;99.90;;;;;;5110965;28;20476;-69
2023/04/07 11:24:36;;;;;;;8.32;4.25;;;10.00;99.90;;;;;;5099617;28;20492;-69
2023/04/07 11:27:02;;;;;;;9.18;3.90;;;10.00;99.90;;;;;;5106413;28;20591;-72
2023/04/07 11:29:31;;;;;;;;;;;10.00;99.90;;;;;;5104503;28;20043;-70
2023/04/07 11:31:59;;;;;;;10.82;4.90;;;10.10;99.90;;;;;;5108112;28;19964;-69
2023/04/07 11:34:32;;;;;;;11.23;4.75;;;10.10;99.90;;;;;;5112613;28;20096;-69
2023/04/07 11:37:17;;;;;;;9.60;5.05;;;10.10;99.90;;;;;;5094031;28;20079;-69
2023/04/07 11:39:45;;;;;;;9.68;4.60;;;10.10;99.90;;;;;;5113417;28;20039;-72
2023/04/07 11:42:10;;;;;;;9.18;5.13;;;10.10;99.90;;;;;;5110535;28;20047;-72
2023/04/07 11:44:45;;;;;;;9.65;4.60;;;10.10;99.90;;;;;;5112160;28;20058;-70
2023/04/07 11:47:10;;;;;;;10.52;4.45;;;10.10;99.90;;;;;;5092623;28;20048;-71
2023/04/07 11:49:44;;;;;;;7.72;4.22;;;10.10;99.90;;;;;;5092124;28;20485;-71
2023/04/07 11:52:10;;;;;;;10.02;5.13;;;10.10;99.90;;;;;;5090859;28;20047;-71
2023/04/07 11:54:41;;;;;;;9.75;4.40;;;10.10;99.90;;;;;;5094522;28;20035;-71
2023/04/07 11:57:09;;;;;;;9.00;4.13;;;10.00;99.90;;;;;;5097105;28;20512;-71
2023/04/07 11:59:34;;;;;;;9.27;4.55;;;10.10;99.90;;;;;;5091368;28;20067;-71
2023/04/07 12:02:00;;;;;;;10.07;4.32;;;10.10;99.90;;;;;;5090715;28;20060;-71
2023/04/07 12:04:26;;;;;;;9.30;4.55;;;10.10;99.90;;;;;;5093022;28;20090;-70
2023/04/07 12:06:52;;;;;;;7.38;3.97;;;10.10;99.90;;;;;;5109858;28;20078;-70
2023/04/07 12:09:31;;;;;;;8.40;3.97;;;10.20;99.90;;;;;;5092933;28;20043;-70
2023/04/07 12:11:57;;;;;;;9.43;4.68;;;10.20;99.90;;;;;;5096754;28;20052;-70
2023/04/07 12:14:26;;;;;;;8.65;4.43;;;10.20;99.90;;;;;;5073095;28;20059;-73
2023/04/07 12:16:55;;;;;;;10.55;4.45;;;10.20;99.90;;;;;;5106685;28;20130;-74
2023/04/07 12:19:22;;;;;;;9.05;4.07;;;10.20;99.90;;;;;;5111061;28;20040;-70
2023/04/07 12:21:48;;;;;;;9.57;4.30;;;10.20;99.90;;;;;;5093593;28;20051;-73
2023/04/07 12:24:13;;;;;;;9.38;4.70;;;10.30;99.90;;;;;;5109976;28;20114;-72
2023/04/07 12:26:39;;;;;;;12.85;5.38;;;10.30;99.90;;;;;;5098261;28;20545;-70
2023/04/07 12:29:05;;;;;;;10.80;4.53;;;10.30;99.90;;;;;;5085087;28;20047;-71
2023/04/07 12:31:31;;;;;;;;;;;10.40;99.90;;;;;;5101434;28;20062;-72
2023/04/07 12:33:57;;;;;;;9.75;5.03;;;10.50;99.90;;;;;;5111363;28;19919;-78
2023/04/07 12:36:26;;;;;;;;;;;10.70;99.90;;;;;;5099973;28;20052;-70
2023/04/07 12:38:53;;;;;;;9.27;4.40;;;10.80;99.90;;;;;;5091368;28;19931;-69
2023/04/07 12:41:19;;;;;;;9.25;4.38;;;11.00;99.90;;;;;;5073099;28;20100;-69
2023/04/07 12:43:45;;;;;;;7.97;4.20;;;11.20;99.90;;;;;;5091131;28;20035;-68
2023/04/07 12:46:11;;;;;;;8.70;4.28;;;11.20;99.90;;;;;;5092004;28;20044;-69